createdAt,value
2019-01-29T00:00:47.000Z,5.30
2019-01-29T00:03:14.738Z,4.97
2019-01-29T00:05:42.243Z,4.67
2019-01-29T00:08:09.639Z,4.63
2019-01-29T00:10:37.078Z,3.93
2019-01-29T00:13:04.659Z,4.70
2019-01-29T00:15:32.113Z,4.53
2019-01-29T00:17:59.593Z,4.50
2019-01-29T00:20:27.023Z,4.50
2019-01-29T00:22:54.520Z,4.10
2019-01-29T00:25:21.938Z,4.20
2019-01-29T00:27:49.400Z,4.27
2019-01-29T00:30:16.879Z,4.30
2019-01-29T00:32:44.335Z,4.47
2019-01-29T00:35:11.933Z,3.73
2019-01-29T00:37:39.399Z,4.37
2019-01-29T00:40:07.273Z,4.70
2019-01-29T00:42:34.713Z,4.43
2019-01-29T00:45:02.333Z,4.10
2019-01-29T00:47:29.838Z,3.93
2019-01-29T00:49:57.223Z,3.70
2019-01-29T00:52:24.668Z,4.07
2019-01-29T00:54:52.034Z,4.50
2019-01-29T00:57:19.582Z,4.60
2019-01-29T00:59:47.013Z,4.50
2019-01-29T01:02:14.578Z,4.70
2019-01-29T01:04:41.974Z,4.90
2019-01-29T01:07:09.458Z,4.63
2019-01-29T01:09:37.054Z,4.73
2019-01-29T01:12:04.535Z,5.40
2019-01-29T01:14:31.933Z,5.03
2019-01-29T01:16:59.419Z,4.90
2019-01-29T01:19:26.809Z,5.20
2019-01-29T01:21:54.238Z,5.00
2019-01-29T01:24:21.739Z,4.97
2019-01-29T01:26:49.158Z,5.30
2019-01-29T01:29:16.633Z,5.10
2019-01-29T01:31:44.094Z,5.27
2019-01-29T01:34:11.523Z,5.17
2019-01-29T01:36:38.938Z,4.73
2019-01-29T01:39:07.997Z,3.20
2019-01-29T01:41:35.408Z,6.03
2019-01-29T01:44:02.994Z,5.20
2019-01-29T01:46:30.398Z,4.40
2019-01-29T01:48:57.898Z,4.40
2019-01-29T01:51:27.108Z,5.83
2019-01-29T01:53:55.772Z,4.67
2019-01-29T01:56:23.188Z,4.70
2019-01-29T01:58:50.674Z,4.57
2019-01-29T02:01:20.658Z,4.83
2019-01-29T02:03:48.140Z,5.07
2019-01-29T02:06:15.568Z,4.83
2019-01-29T02:08:43.052Z,5.03
2019-01-29T02:11:10.538Z,4.07
2019-01-29T02:13:38.013Z,4.50
2019-01-29T02:16:05.543Z,5.30
2019-01-29T02:18:33.061Z,4.77
2019-01-29T02:21:00.543Z,4.60
2019-01-29T02:23:27.973Z,5.30
2019-01-29T02:25:55.478Z,4.80
2019-01-29T02:28:22.888Z,5.13
2019-01-29T02:30:50.347Z,5.27
2019-01-29T02:33:17.793Z,5.03
2019-01-29T02:35:45.370Z,5.13
2019-01-29T02:38:12.807Z,3.57
2019-01-29T02:40:40.287Z,5.17
2019-01-29T02:43:07.700Z,5.60
2019-01-29T02:45:35.538Z,5.27
2019-01-29T02:48:03.104Z,6.03
2019-01-29T02:50:30.597Z,5.20
2019-01-29T02:52:58.012Z,5.63
2019-01-29T02:55:25.458Z,4.97
2019-01-29T02:57:52.872Z,5.43
2019-01-29T03:00:23.276Z,4.77
2019-01-29T03:02:50.750Z,5.47
2019-01-29T03:05:19.018Z,5.40
2019-01-29T03:07:46.658Z,5.47
2019-01-29T03:10:16.365Z,5.63
2019-01-29T03:12:43.746Z,5.80
2019-01-29T03:15:16.792Z,6.00
2019-01-29T03:17:44.298Z,6.03
2019-01-29T03:20:12.777Z,6.20
2019-01-29T03:22:40.182Z,5.33
2019-01-29T03:25:08.698Z,4.83
2019-01-29T03:27:36.224Z,5.67
2019-01-29T03:30:04.856Z,5.67
2019-01-29T03:32:32.286Z,5.10
2019-01-29T03:35:02.087Z,5.40
2019-01-29T03:37:29.248Z,6.00
2019-01-29T03:39:56.698Z,4.50
2019-01-29T03:42:24.103Z,5.03
2019-01-29T03:44:51.568Z,5.53
2019-01-29T03:47:19.007Z,4.93
2019-01-29T03:49:46.457Z,5.27
2019-01-29T03:52:13.888Z,5.80
2019-01-29T03:54:41.300Z,5.13
2019-01-29T03:57:08.768Z,5.63
2019-01-29T03:59:36.228Z,5.00
2019-01-29T04:02:03.797Z,5.53
2019-01-29T04:04:31.217Z,4.77
2019-01-29T04:06:58.693Z,5.40
2019-01-29T04:09:26.148Z,5.13
2019-01-29T04:11:53.606Z,4.60
2019-01-29T04:14:21.088Z,4.70
2019-01-29T04:16:48.858Z,4.57
2019-01-29T04:19:17.458Z,4.53
2019-01-29T04:21:45.048Z,5.17
2019-01-29T04:24:12.528Z,5.53
2019-01-29T04:26:39.993Z,5.17
2019-01-29T04:29:07.448Z,4.97
2019-01-29T04:31:35.023Z,5.50
2019-01-29T04:34:02.433Z,5.60
2019-01-29T04:36:29.888Z,5.20
2019-01-29T04:38:57.275Z,5.10
2019-01-29T04:41:24.847Z,5.73
2019-01-29T04:43:52.279Z,5.10
2019-01-29T04:46:19.760Z,5.80
2019-01-29T04:48:47.213Z,5.17
2019-01-29T04:51:14.726Z,5.13
2019-01-29T04:53:42.133Z,6.00
2019-01-29T04:56:12.408Z,5.70
2019-01-29T04:58:39.808Z,5.10
2019-01-29T05:01:08.006Z,6.07
2019-01-29T05:03:35.388Z,4.93
2019-01-29T05:06:02.871Z,5.57
2019-01-29T05:08:31.605Z,6.00
2019-01-29T05:11:02.901Z,7.10
2019-01-29T05:13:30.321Z,5.17
2019-01-29T05:16:00.679Z,5.43
2019-01-29T05:18:32.259Z,5.33
2019-01-29T05:20:59.898Z,5.70
2019-01-29T05:23:30.070Z,5.50
2019-01-29T05:25:57.507Z,5.60
2019-01-29T05:28:24.970Z,5.73
2019-01-29T05:30:52.475Z,5.93
2019-01-29T05:33:19.944Z,5.50
2019-01-29T05:35:47.378Z,5.90
2019-01-29T05:38:14.840Z,6.47
2019-01-29T05:40:42.243Z,6.13
2019-01-29T05:43:09.728Z,6.60
2019-01-29T05:45:38.463Z,6.37
2019-01-29T05:48:05.943Z,6.17
2019-01-29T05:50:33.416Z,7.73
2019-01-29T05:53:00.865Z,7.40
2019-01-29T05:55:28.365Z,8.50
2019-01-29T05:57:55.864Z,7.93
2019-01-29T06:00:28.468Z,7.93
2019-01-29T06:02:56.038Z,7.97
2019-01-29T06:05:23.547Z,9.20
2019-01-29T06:07:51.026Z,6.90
2019-01-29T06:10:18.618Z,8.53
2019-01-29T06:12:46.184Z,8.93
2019-01-29T06:15:15.254Z,9.73
2019-01-29T06:17:42.757Z,9.13
2019-01-29T06:20:13.513Z,9.50
2019-01-29T06:22:41.075Z,9.77
2019-01-29T06:25:08.580Z,10.50
2019-01-29T06:27:36.128Z,8.53
2019-01-29T06:30:05.369Z,8.77
2019-01-29T06:32:32.838Z,9.23
2019-01-29T06:35:00.365Z,9.30
2019-01-29T06:37:27.959Z,8.27
2019-01-29T06:39:55.843Z,8.60
2019-01-29T06:42:23.328Z,9.20
2019-01-29T06:44:50.793Z,8.73
2019-01-29T06:47:18.244Z,8.73
2019-01-29T06:49:45.720Z,9.60
2019-01-29T06:52:13.213Z,8.70
2019-01-29T06:54:40.653Z,8.90
2019-01-29T06:57:08.077Z,9.80
2019-01-29T06:59:35.569Z,10.00
2019-01-29T07:02:03.163Z,9.53
2019-01-29T07:04:30.676Z,10.17
2019-01-29T07:06:58.058Z,10.57
2019-01-29T07:09:27.707Z,10.47
2019-01-29T07:12:00.418Z,10.13
2019-01-29T07:14:27.928Z,10.60
2019-01-29T07:17:01.278Z,10.40
2019-01-29T07:19:39.242Z,10.03
2019-01-29T07:22:06.943Z,10.33
2019-01-29T07:24:42.408Z,11.30
2019-01-29T07:27:03.954Z,10.10
2019-01-29T07:29:31.390Z,10.57
2019-01-29T07:31:58.944Z,10.07
2019-01-29T07:34:26.408Z,11.20
2019-01-29T07:36:53.853Z,10.80
2019-01-29T07:39:21.393Z,11.63
2019-01-29T07:41:48.828Z,10.43
2019-01-29T07:44:16.298Z,10.93
2019-01-29T07:46:43.714Z,11.53
2019-01-29T07:49:11.201Z,12.73
2019-01-29T07:51:38.668Z,11.57
2019-01-29T07:54:06.183Z,12.30
2019-01-29T07:56:33.623Z,12.57
2019-01-29T07:59:01.091Z,9.93
2019-01-29T08:01:28.490Z,11.87
2019-01-29T08:03:55.963Z,13.70
2019-01-29T08:06:23.398Z,13.17
2019-01-29T08:08:50.855Z,14.17
2019-01-29T08:11:18.318Z,14.33
2019-01-29T08:13:45.769Z,15.67
2019-01-29T08:16:13.382Z,13.20
2019-01-29T08:18:40.941Z,14.23
2019-01-29T08:21:08.763Z,15.33
2019-01-29T08:23:36.232Z,15.23
2019-01-29T08:26:03.863Z,16.27
2019-01-29T08:28:31.243Z,17.10
2019-01-29T08:30:58.708Z,17.77
2019-01-29T08:33:26.098Z,17.90
2019-01-29T08:35:54.678Z,17.93
2019-01-29T08:38:22.338Z,17.90
2019-01-29T08:40:49.901Z,17.97
2019-01-29T08:43:17.441Z,19.90
2019-01-29T08:45:45.061Z,19.83
2019-01-29T08:48:12.581Z,20.60
2019-01-29T08:50:40.201Z,21.30
2019-01-29T08:53:07.660Z,21.77
2019-01-29T08:55:35.344Z,20.43
2019-01-29T08:58:02.981Z,22.07
2019-01-29T09:00:30.694Z,22.27
2019-01-29T09:02:58.161Z,21.77
2019-01-29T09:05:25.801Z,21.17
2019-01-29T09:07:53.481Z,22.67
2019-01-29T09:10:21.307Z,23.23
2019-01-29T09:12:49.022Z,22.63
2019-01-29T09:15:16.822Z,22.43
2019-01-29T09:17:44.781Z,20.13
2019-01-29T09:20:13.543Z,20.50
2019-01-29T09:22:41.201Z,21.87
2019-01-29T09:25:19.127Z,22.03
2019-01-29T09:27:39.781Z,22.13
2019-01-29T09:30:10.282Z,19.83
2019-01-29T09:32:37.901Z,19.87
2019-01-29T09:35:05.681Z,20.83
2019-01-29T09:37:33.281Z,21.70
2019-01-29T09:40:01.387Z,19.77
2019-01-29T09:42:29.101Z,19.67
2019-01-29T09:44:56.786Z,19.27
2019-01-29T09:47:24.481Z,18.77
2019-01-29T09:49:51.930Z,19.87
2019-01-29T09:52:19.385Z,19.50
2019-01-29T09:54:46.824Z,20.47
2019-01-29T09:57:14.285Z,19.17
2019-01-29T09:59:41.715Z,20.13
2019-01-29T10:02:09.170Z,19.63
2019-01-29T10:04:36.739Z,20.90
2019-01-29T10:07:06.826Z,17.53
2019-01-29T10:09:34.438Z,18.20
2019-01-29T10:12:01.899Z,18.07
2019-01-29T10:14:29.376Z,17.17
2019-01-29T10:16:56.880Z,20.93
2019-01-29T10:19:24.307Z,20.57
2019-01-29T10:21:53.592Z,20.07
2019-01-29T10:24:21.028Z,22.33
2019-01-29T10:26:48.492Z,23.30
2019-01-29T10:29:15.960Z,22.70
2019-01-29T11:03:39.702Z,18.73
2019-01-29T12:09:58.495Z,18.00
2019-01-29T12:12:46.005Z,16.07
2019-01-29T12:15:22.305Z,18.07
2019-01-29T12:17:49.888Z,17.50
2019-01-29T12:20:32.169Z,16.27
2019-01-29T12:23:08.867Z,17.33
2019-01-29T12:25:44.912Z,17.27
2019-01-29T12:28:12.803Z,14.60
2019-01-29T12:30:43.184Z,15.57
2019-01-29T12:33:17.949Z,13.67
2019-01-29T12:35:50.451Z,15.17
2019-01-29T12:38:23.029Z,14.03
2019-01-29T12:40:52.316Z,16.80
2019-01-29T12:43:29.630Z,14.17
2019-01-29T12:46:17.065Z,13.30
2019-01-29T12:48:48.994Z,14.03
2019-01-29T12:51:40.774Z,15.00
2019-01-29T12:54:11.720Z,15.83
2019-01-29T12:56:41.086Z,15.23
2019-01-29T15:59:03.202Z,9.95
2019-01-29T16:08:20.335Z,8.50
2019-01-29T16:10:52.454Z,9.13
2019-01-29T16:13:32.095Z,7.70
2019-01-29T16:15:59.609Z,9.70
2019-01-29T16:18:27.145Z,9.53
2019-01-29T16:20:54.600Z,8.20
2019-01-29T16:23:22.128Z,8.93
2019-01-29T16:25:49.538Z,7.63
2019-01-29T16:28:17.063Z,9.13
2019-01-29T16:30:47.070Z,9.90
2019-01-29T16:33:14.756Z,10.40
2019-01-29T16:35:42.795Z,9.63
2019-01-29T16:38:10.525Z,10.40
2019-01-29T16:40:39.060Z,9.57
2019-01-29T16:43:06.783Z,9.87
2019-01-29T16:45:34.633Z,8.67
2019-01-29T16:48:02.721Z,9.27
2019-01-29T16:50:30.575Z,9.47
2019-01-29T16:52:58.544Z,8.20
2019-01-29T16:55:26.235Z,8.00
2019-01-29T16:57:53.800Z,7.47
2019-01-29T17:00:24.360Z,9.20
2019-01-29T17:02:52.015Z,8.00
2019-01-29T17:05:22.790Z,7.00
2019-01-29T17:07:50.750Z,6.47
2019-01-29T17:10:22.099Z,6.07
2019-01-29T17:12:49.900Z,6.13
2019-01-29T17:15:20.160Z,6.03
2019-01-29T17:17:48.296Z,6.00
2019-01-29T17:20:21.700Z,6.23
2019-01-29T17:22:49.749Z,5.67
2019-01-29T17:25:17.455Z,5.53
2019-01-29T17:27:45.350Z,6.47
2019-01-29T17:30:45.251Z,5.90
2019-01-29T17:33:15.445Z,6.00
2019-01-29T17:36:16.942Z,6.77
2019-01-29T17:38:50.261Z,7.30
2019-01-29T17:41:18.051Z,7.13
2019-01-29T17:43:45.940Z,6.93
2019-01-29T17:46:14.124Z,7.03
2019-01-29T17:52:41.112Z,7.93
2019-01-29T17:55:24.857Z,7.70
2019-01-29T17:58:39.160Z,7.43
2019-01-29T18:01:07.385Z,8.50
2019-01-29T18:03:35.295Z,7.97
2019-01-29T18:06:03.210Z,8.10
2019-01-29T18:11:59.415Z,8.37
2019-01-29T18:14:27.255Z,9.27
2019-01-29T18:16:57.005Z,8.67
2019-01-29T18:19:31.293Z,7.97
2019-01-29T18:22:10.091Z,6.50
2019-01-29T18:24:40.866Z,7.23
2019-01-29T18:27:17.632Z,4.43
2019-01-29T18:29:45.616Z,6.33
2019-01-29T18:32:13.525Z,4.50
2019-01-29T18:34:41.515Z,6.43
2019-01-29T18:37:09.511Z,6.77
2019-01-29T18:39:37.532Z,7.23
2019-01-29T18:42:05.586Z,8.00
2019-01-29T18:44:33.590Z,7.63
2019-01-29T18:47:01.640Z,8.13
2019-01-29T18:49:29.620Z,7.63
2019-01-29T18:51:57.702Z,7.67
2019-01-29T18:54:31.815Z,8.43
2019-01-29T18:56:59.795Z,7.93
2019-01-29T18:59:27.670Z,6.17
2019-01-29T19:01:56.044Z,7.07
2019-01-29T19:04:27.120Z,6.27
2019-01-29T19:06:55.276Z,6.80
2019-01-29T19:09:23.305Z,5.80
2019-01-29T19:11:51.200Z,6.67
2019-01-29T19:14:19.200Z,6.40
2019-01-29T19:16:47.130Z,6.70
2019-01-29T19:19:15.996Z,6.33
2019-01-29T19:21:43.970Z,5.87
2019-01-29T19:24:11.890Z,5.70
2019-01-29T19:26:39.776Z,5.93
2019-01-29T19:29:07.709Z,7.03
2019-01-29T19:31:35.670Z,7.00
2019-01-29T19:34:03.682Z,6.57
2019-01-29T19:36:31.789Z,6.63
2019-01-29T19:38:59.640Z,6.00
2019-01-29T19:41:27.675Z,6.87
2019-01-29T19:43:55.651Z,6.73
2019-01-29T19:46:23.641Z,7.43
2019-01-29T19:48:51.535Z,7.00
2019-01-29T19:51:20.205Z,6.80
2019-01-29T19:53:48.051Z,6.93
2019-01-29T19:56:18.042Z,6.77
2019-01-29T19:58:45.988Z,6.73
2019-01-29T20:01:14.002Z,6.50
2019-01-29T20:03:41.902Z,6.27
2019-01-29T20:06:09.922Z,5.93
2019-01-29T20:08:37.875Z,7.00
2019-01-29T20:11:06.077Z,5.50
2019-01-29T20:13:34.021Z,6.60
2019-01-29T20:16:02.027Z,6.83
2019-01-29T20:18:30.009Z,6.53
2019-01-29T20:20:58.028Z,5.83
2019-01-29T20:23:26.022Z,5.00
2019-01-29T20:25:54.080Z,6.13
2019-01-29T20:28:22.023Z,5.50
2019-01-29T20:30:50.012Z,6.60
2019-01-29T20:33:18.042Z,6.53
2019-01-29T20:35:46.062Z,7.23
2019-01-29T20:38:14.007Z,7.70
2019-01-29T20:40:41.912Z,7.93
2019-01-29T20:43:09.867Z,7.37
2019-01-29T20:45:37.801Z,7.20
2019-01-29T20:48:13.747Z,7.67
2019-01-29T20:51:52.854Z,7.07
2019-01-29T20:55:55.246Z,7.00
2019-01-29T20:58:20.687Z,6.87
2019-01-29T21:00:49.303Z,8.33
2019-01-29T21:03:17.217Z,6.90
2019-01-29T21:05:45.177Z,6.07
2019-01-29T21:08:13.112Z,7.80
2019-01-29T21:10:41.032Z,6.53
2019-01-29T21:13:10.939Z,6.53
2019-01-29T21:15:41.538Z,9.03
2019-01-29T21:18:09.567Z,9.93
2019-01-29T21:20:37.513Z,8.33
2019-01-29T21:23:05.427Z,8.53
2019-01-29T21:25:33.479Z,9.20
2019-01-29T21:28:01.444Z,8.80
2019-01-29T21:30:31.540Z,8.83
2019-01-29T21:32:59.517Z,8.33
2019-01-29T21:35:27.287Z,9.00
2019-01-29T21:37:55.257Z,9.40
2019-01-29T21:40:23.102Z,8.70
2019-01-29T21:42:50.967Z,8.10
2019-01-29T21:45:18.887Z,8.37
2019-01-29T21:47:47.085Z,7.47
2019-01-29T21:50:20.094Z,7.70
2019-01-29T21:52:47.682Z,7.97
2019-01-29T21:55:15.652Z,7.77
2019-01-29T21:57:43.147Z,8.33
2019-01-29T22:00:17.112Z,8.40
2019-01-29T22:02:44.592Z,7.70
2019-01-29T22:05:12.572Z,8.13
2019-01-29T22:07:40.027Z,8.77
2019-01-29T22:10:08.507Z,8.07
2019-01-29T22:12:35.982Z,8.33
2019-01-29T22:15:04.507Z,9.63
2019-01-29T22:17:32.047Z,8.70
2019-01-29T22:19:59.555Z,9.27
2019-01-29T22:22:27.027Z,8.93
2019-01-29T22:24:54.471Z,10.10
2019-01-29T22:27:21.927Z,8.60
2019-01-29T22:29:49.317Z,8.43
2019-01-29T22:32:19.427Z,8.13
2019-01-29T22:34:46.872Z,8.40
2019-01-29T22:37:14.317Z,8.87
2019-01-29T22:39:42.682Z,8.77
2019-01-29T22:42:10.367Z,10.10
2019-01-29T22:44:37.852Z,9.67
2019-01-29T22:47:05.262Z,9.47
2019-01-29T22:49:32.757Z,9.47
2019-01-29T22:52:00.186Z,9.87
2019-01-29T22:54:27.667Z,10.03
2019-01-29T22:56:55.057Z,9.83
2019-01-29T22:59:22.540Z,11.50
2019-01-29T23:01:50.192Z,10.87
2019-01-29T23:04:33.382Z,9.53
2019-01-29T23:07:15.387Z,11.30
2019-01-29T23:09:42.912Z,10.90
2019-01-29T23:12:10.331Z,10.90
2019-01-29T23:14:37.793Z,10.17
2019-01-29T23:17:05.287Z,10.67
2019-01-29T23:19:32.773Z,10.93
2019-01-29T23:22:00.167Z,10.90
2019-01-29T23:24:27.637Z,10.80
2019-01-29T23:26:55.108Z,10.40
2019-01-29T23:29:22.557Z,11.03
2019-01-29T23:31:50.013Z,11.33
2019-01-29T23:34:17.462Z,11.80
2019-01-29T23:36:44.922Z,12.33
2019-01-29T23:39:14.222Z,11.37
2019-01-29T23:41:41.729Z,11.60
2019-01-29T23:44:09.202Z,11.67
2019-01-29T23:46:36.637Z,11.40
2019-01-29T23:49:04.292Z,11.07
2019-01-29T23:51:31.698Z,11.50
2019-01-29T23:53:59.162Z,12.30
2019-01-29T23:56:26.572Z,12.10
2019-01-29T23:58:54.026Z,13.33
